Etusivu
METAR-TAF:

METAR-TAF

Lentoasemat :

Tripoli, Libya

Mitiga International Airport

Leveyspiiri: 32-54N, Pituuspiiri: 13-17E, korkeus merenpinnasta: 11 m

Tämänhetkinen sää

Tämä raportti tehtiin 4 tuntia ja 40 minuuttia sitten, kello 17.55 UTC
Tuuli 10 kn pohjoisesta/koillisesta
Lämpötila 28°C
Kosteus 79%
Ilmanpaine 1012 hPa
Näkyvyys: 6000 m
Hajonneita pilviä 3000 ft:n korkeudessa

METAR: HLLM 191755Z 03010KT 6000 BKN030 28/24 Q1012

Aika: 00:35 (22:35 UTC)

Sääennuste

Tämä raportti tehtiin 17 tuntia ja 35 minuuttia sitten, kello 05.00 UTC
Ennuste voimassa 19. päivästä klo 06 UTC - 20. päivään klo 06 UTC
Tuuli 12 kn pohjoisesta
Näkyvyys: 8000 m
Hajanaisia pilviä 2500 ft:n korkeudessa
Hajanaisia pilviä 8000 ft:n korkeudessa
Todennäköisyys 30% :
Ajoittain
19. päivästä klo 09 UTC - 19. päivään klo 12 UTC
Näkyvyys: 6000 m
Hajonneita pilviä 2500 ft:n korkeudessa
vesikuuroja

TAF: HLLM 190500Z 1906/2006 36012KT 8000 SCT025 SCT080 PROB30 TEMPO 1909/1912 6000 SHRA BKN025

Säähavainnot ja -ennusteet yli 4000 lentoasemalta (METAR- ja TAF-raportit).

Käytössä olevat sääasemat on merkitty karttaan keltaisilla ja punaisilla pisteillä.

Aseta hiiri pisteen päälle nähdäksesi sääaseman nimen.

Klikkaa sitten nähdäksesi säähavainnot ja -ennusteet.

Kartan vaihtaminen: klikkaa mustalla rastilla varustettuja vihreitä pisteitä, niin voit zoomata sisään; viivalla varustettua vihreää pistettä, niin voit zoomata ulos tai vihreitä nuolia, niin pääset viereisille kartoille.


METAR-TAF: